createdAt,value
2022-10-09T00:00:38.111Z,99747.27
2022-10-09T00:01:38.423Z,99749.2
2022-10-09T00:02:39.404Z,99749.52
2022-10-09T00:03:40.793Z,99749.74
2022-10-09T00:04:39.873Z,99748.31
2022-10-09T00:05:40.655Z,99749.31
2022-10-09T00:06:40.295Z,99749.33
2022-10-09T00:07:40.918Z,99751.79
2022-10-09T00:08:42.055Z,99750.32
2022-10-09T00:09:41.628Z,99752.73
2022-10-09T00:10:43.364Z,99749.54
2022-10-09T00:11:42.589Z,99750.83
2022-10-09T00:12:42.901Z,99750.55
2022-10-09T00:13:43.516Z,99749.84
2022-10-09T00:14:43.829Z,99754.31
2022-10-09T00:15:45.693Z,99760.1
2022-10-09T00:16:44.551Z,99762.07
2022-10-09T00:17:44.979Z,99761.99
2022-10-09T00:18:45.756Z,99762.05
2022-10-09T00:19:45.923Z,99761.66
2022-10-09T00:20:47.360Z,99759.4
2022-10-09T00:21:46.547Z,99756.91
2022-10-09T00:22:47.395Z,99759.7
2022-10-09T00:23:48.097Z,99755.13
2022-10-09T00:24:48.401Z,99757.97
2022-10-09T00:26:53.551Z,99757.59
2022-10-09T00:27:53.647Z,99759.62
2022-10-09T00:28:55.031Z,99758.92
2022-10-09T00:29:54.472Z,99757.88
2022-10-09T00:30:54.976Z,99762.88
2022-10-09T00:31:55.622Z,99766.19
2022-10-09T00:32:55.731Z,99771.28
2022-10-09T00:33:56.142Z,99773.9
2022-10-09T00:34:56.667Z,99769.01
2022-10-09T00:35:56.872Z,99765.94
2022-10-09T00:36:57.410Z,99763.55
2022-10-09T00:37:57.808Z,99767.91
2022-10-09T00:38:58.442Z,99766.23
2022-10-09T00:39:58.741Z,99766.27
2022-10-09T00:40:59.049Z,99763.8
2022-10-09T00:41:59.484Z,99761.48
2022-10-09T00:43:00.411Z,99762.53
2022-10-09T00:45:04.816Z,99766.66
2022-10-09T00:46:04.355Z,99767.45
2022-10-09T00:47:04.418Z,99768.57
2022-10-09T00:48:07.298Z,99766.73
2022-10-09T00:51:07.428Z,99777.98
2022-10-09T00:52:08.035Z,99775.89
2022-10-09T00:53:10.711Z,99773.7
2022-10-09T00:54:14.302Z,99774.52
2022-10-09T00:55:14.319Z,99776.84
2022-10-09T00:56:12.476Z,99778.95
2022-10-09T00:57:13.393Z,99776.27
2022-10-09T00:58:13.604Z,99774.05
2022-10-09T00:59:14.846Z,99768.89
2022-10-09T01:00:15.457Z,99770.92
2022-10-09T01:01:14.899Z,99770.97
2022-10-09T01:02:15.194Z,99770.02
2022-10-09T01:03:15.794Z,99773.47
2022-10-09T01:04:16.104Z,99774.39
2022-10-09T01:05:16.950Z,99770.88
2022-10-09T01:27:17.586Z,99781.61
2022-10-09T01:28:16.643Z,99782.55
2022-10-09T01:29:18.934Z,99780.43
2022-10-09T01:30:16.685Z,99780.4
2022-10-09T01:31:18.678Z,99782.41
2022-10-09T01:32:27.960Z,99783.77
2022-10-09T01:33:20.493Z,99778.61
2022-10-09T01:34:22.795Z,99786.12
2022-10-09T01:35:23.170Z,99788.48
2022-10-09T01:36:23.586Z,99792.93
2022-10-09T01:37:23.625Z,99795.48
2022-10-09T01:38:24.756Z,99800.14
2022-10-09T01:39:24.324Z,99794.98
2022-10-09T01:40:27.008Z,99798.52
2022-10-09T01:41:25.482Z,99797.81
2022-10-09T01:42:27.929Z,99798.8
2022-10-09T01:43:25.385Z,99801.51
2022-10-09T01:44:31.325Z,99798.95
2022-10-09T01:45:41.981Z,99797.66
2022-10-09T01:46:32.580Z,99802.28
2022-10-09T01:47:30.422Z,99802.95
2022-10-09T01:48:30.934Z,99803.18
2022-10-09T01:50:36.278Z,99802.62
2022-10-09T01:53:42.335Z,99805.31
2022-10-09T01:58:59.668Z,99806.77
2022-10-09T01:59:53.843Z,99808.66
2022-10-09T02:01:04.501Z,99810.09
2022-10-09T02:01:59.317Z,99811.36
2022-10-09T02:02:58.377Z,99808.98
2022-10-09T02:04:00.420Z,99811.16
2022-10-09T02:04:59.097Z,99808.86
2022-10-09T02:06:00.118Z,99808.98
2022-10-09T02:06:59.825Z,99810.88
2022-10-09T02:08:00.048Z,99810.97
2022-10-09T02:09:00.641Z,99812.66
2022-10-09T02:10:03.022Z,99812.13
2022-10-09T02:11:02.938Z,99808.53
2022-10-09T02:12:07.229Z,99809.38
2022-10-09T02:13:05.086Z,99809.48
2022-10-09T02:14:05.407Z,99808.69
2022-10-09T02:15:06.945Z,99806.47
2022-10-09T02:18:14.850Z,99809.3
2022-10-09T02:23:25.635Z,99811.55
2022-10-09T02:24:24.716Z,99809.82
2022-10-09T02:25:25.152Z,99811.54
2022-10-09T02:26:26.370Z,99818.66
2022-10-09T02:27:26.891Z,99816.88
2022-10-09T02:28:26.182Z,99819.68
2022-10-09T02:29:26.081Z,99820.13
2022-10-09T02:30:34.092Z,99824.73
2022-10-09T02:31:29.755Z,99823.95
2022-10-09T02:32:28.557Z,99829.48
2022-10-09T02:33:31.950Z,99824.66
2022-10-09T02:34:29.705Z,99827.28
2022-10-09T02:35:29.916Z,99829.7
2022-10-09T02:36:31.249Z,99829.82
2022-10-09T02:37:30.640Z,99833.42
2022-10-09T02:38:30.965Z,99834.48
2022-10-09T02:39:31.476Z,99834.89
2022-10-09T02:40:31.787Z,99832.85
2022-10-09T02:41:33.231Z,99829.86
2022-10-09T02:42:32.619Z,99825.19
2022-10-09T02:43:33.034Z,99831.33
2022-10-09T02:44:33.551Z,99829.88
2022-10-09T02:45:33.754Z,99830.52
2022-10-09T02:46:34.631Z,99829.02
2022-10-09T02:47:34.715Z,99832.23
2022-10-09T02:48:35.346Z,99835.86
2022-10-09T02:49:35.633Z,99830.41
2022-10-09T02:50:36.145Z,99831.64
2022-10-09T02:51:36.380Z,99833.8
2022-10-09T02:52:36.674Z,99832.64
2022-10-09T02:53:37.303Z,99829.94
2022-10-09T02:54:37.605Z,99833.42
2022-10-09T02:55:37.932Z,99832.8
2022-10-09T02:56:39.257Z,99832.62
2022-10-09T02:57:38.765Z,99835.38
2022-10-09T02:58:39.990Z,99835.88
2022-10-09T02:59:39.693Z,99838.3
2022-10-09T03:00:40.011Z,99839.89
2022-10-09T03:01:40.689Z,99840.83
2022-10-09T03:02:40.900Z,99839.59
2022-10-09T03:03:41.268Z,99842.06
2022-10-09T03:04:41.625Z,99843
2022-10-09T03:05:42.229Z,99843.3
2022-10-09T03:06:42.407Z,99843.26
2022-10-09T03:07:42.795Z,99845.86
2022-10-09T03:08:46.104Z,99846.15
2022-10-09T03:09:43.655Z,99846.23
2022-10-09T03:10:43.961Z,99847.22
2022-10-09T03:11:44.359Z,99845.36
2022-10-09T03:12:44.900Z,99847.09
2022-10-09T03:13:45.743Z,99850.33
2022-10-09T03:14:45.738Z,99849.2
2022-10-09T03:15:46.064Z,99850.51
2022-10-09T03:16:46.668Z,99847.47
2022-10-09T03:17:46.991Z,99850.59
2022-10-09T03:18:48.321Z,99851.48
2022-10-09T03:19:47.716Z,99855.97
2022-10-09T03:20:48.646Z,99855.89
2022-10-09T03:21:48.851Z,99855.02
2022-10-09T03:22:49.362Z,99852.69
2022-10-09T03:23:50.414Z,99850.98
2022-10-09T03:24:49.906Z,99851.02
2022-10-09T03:26:00.266Z,99848.15
2022-10-09T03:26:52.785Z,99849.75
2022-10-09T03:27:53.392Z,99847.61
2022-10-09T03:28:55.039Z,99848.98
2022-10-09T03:29:54.229Z,99844.15
2022-10-09T03:30:54.847Z,99846.04
2022-10-09T03:31:55.000Z,99849.03
2022-10-09T03:32:55.475Z,99851.73
2022-10-09T03:33:55.700Z,99851.3
2022-10-09T03:34:56.214Z,99850.25
2022-10-09T03:35:56.738Z,99847.95
2022-10-09T03:36:57.039Z,99852.35
2022-10-09T03:37:57.361Z,99849.67
2022-10-09T03:38:57.870Z,99854.5
2022-10-09T03:39:58.899Z,99849.97
2022-10-09T03:40:59.538Z,99849.97
2022-10-09T03:41:58.926Z,99856.05
2022-10-09T03:42:59.545Z,99855.28
2022-10-09T03:43:59.949Z,99861.01
2022-10-09T03:45:00.254Z,99859.03
2022-10-09T03:46:05.616Z,99860.75
2022-10-09T03:47:03.169Z,99864.5
2022-10-09T03:48:03.437Z,99858.8
2022-10-09T03:49:04.086Z,99864.62
2022-10-09T03:50:05.010Z,99863.78
2022-10-09T03:51:05.237Z,99866.21
2022-10-09T03:52:05.137Z,99866.2
2022-10-09T03:53:06.471Z,99866.14
2022-10-09T03:54:06.486Z,99868.66
2022-10-09T03:55:07.416Z,99868.37
2022-10-09T03:56:07.300Z,99868.55
2022-10-09T03:57:07.192Z,99868.36
2022-10-09T03:58:08.242Z,99866.89
2022-10-09T03:59:08.140Z,99868.45
2022-10-09T04:00:09.995Z,99861.28
2022-10-09T04:01:09.272Z,99863.2
2022-10-09T04:02:09.555Z,99871.02
2022-10-09T04:03:09.831Z,99870.86
2022-10-09T04:04:10.025Z,99870.62
2022-10-09T04:05:10.516Z,99874.11
2022-10-09T04:06:11.678Z,99875.39
2022-10-09T04:07:11.366Z,99873.32
2022-10-09T04:08:11.791Z,99875.38
2022-10-09T04:09:12.198Z,99878.74
2022-10-09T04:10:13.022Z,99875.52
2022-10-09T04:11:13.133Z,99877.56
2022-10-09T04:12:13.466Z,99877.53
2022-10-09T04:13:13.864Z,99880.55
2022-10-09T04:14:14.384Z,99886.11
2022-10-09T04:15:14.799Z,99880.86
2022-10-09T04:16:15.067Z,99883.66
2022-10-09T04:17:15.428Z,99884.55
2022-10-09T04:18:15.864Z,99884.95
2022-10-09T04:19:16.472Z,99886.45
2022-10-09T04:20:16.982Z,99890.45
2022-10-09T04:21:17.192Z,99888.7
2022-10-09T04:22:17.505Z,99886.27
2022-10-09T04:23:18.844Z,99891.14
2022-10-09T04:24:18.431Z,99892.02
2022-10-09T04:25:18.964Z,99896.98
2022-10-09T04:26:19.458Z,99897
2022-10-09T04:27:19.687Z,99895.8
2022-10-09T04:28:20.193Z,99898.83
2022-10-09T04:29:20.395Z,99901.81
2022-10-09T04:30:20.944Z,99905.17
2022-10-09T04:31:21.417Z,99906.66
2022-10-09T04:32:23.408Z,99907.56
2022-10-09T04:33:22.197Z,99908.09
2022-10-09T04:34:22.607Z,99907.92
2022-10-09T04:35:23.128Z,99910.2
2022-10-09T04:36:23.641Z,99907.38
2022-10-09T04:37:23.860Z,99908.22
2022-10-09T04:38:24.796Z,99908.03
2022-10-09T04:39:24.806Z,99909.52
2022-10-09T04:40:25.116Z,99908.38
2022-10-09T04:41:25.620Z,99909.12
2022-10-09T04:42:25.834Z,99908.78
2022-10-09T04:43:26.758Z,99907.05
2022-10-09T04:44:26.678Z,99909.67
2022-10-09T04:45:27.121Z,99906.27
2022-10-09T04:46:27.709Z,99908.98
2022-10-09T04:47:28.020Z,99909.42
2022-10-09T04:48:28.216Z,99912.11
2022-10-09T04:49:28.746Z,99914.51
2022-10-09T04:50:29.162Z,99915.41
2022-10-09T04:51:29.787Z,99918.31
2022-10-09T04:52:29.992Z,99918.35
2022-10-09T04:53:30.306Z,99922.6
2022-10-09T04:54:30.828Z,99924.93
2022-10-09T04:55:31.196Z,99927.55
2022-10-09T04:56:31.865Z,99928.47
2022-10-09T04:57:31.956Z,99928.88
2022-10-09T04:58:32.701Z,99933.12
2022-10-09T04:59:32.911Z,99931.12
2022-10-09T05:00:33.366Z,99932.31
2022-10-09T05:01:38.129Z,99935.98
2022-10-09T05:02:36.305Z,99934.66
2022-10-09T05:03:37.240Z,99937.74
2022-10-09T05:04:37.032Z,99941.59
2022-10-09T05:05:37.970Z,99941.3
2022-10-09T05:06:37.874Z,99939.78
2022-10-09T05:07:38.286Z,99938.65
2022-10-09T05:08:39.321Z,99939.27
2022-10-09T05:09:39.120Z,99939.76
2022-10-09T05:10:39.539Z,99940.42
2022-10-09T05:11:42.730Z,99944.41
2022-10-09T05:12:40.467Z,99939.83
2022-10-09T05:13:47.647Z,99940.57
2022-10-09T05:14:44.986Z,99944.15
2022-10-09T05:15:45.403Z,99941.77
2022-10-09T05:17:08.779Z,99943.86
2022-10-09T05:17:48.180Z,99944.72
2022-10-09T05:18:51.035Z,99949.34
2022-10-09T05:19:48.815Z,99952.23
2022-10-09T05:20:49.646Z,99952.47
2022-10-09T05:21:49.742Z,99954.44
2022-10-09T05:22:50.709Z,99956.95
2022-10-09T05:23:51.183Z,99959.08
2022-10-09T05:24:51.001Z,99955.84
2022-10-09T05:26:51.819Z,99964.62
2022-10-09T05:27:52.348Z,99964.41
2022-10-09T05:28:53.271Z,99967.33
2022-10-09T05:29:52.863Z,99968.14
2022-10-09T05:30:53.905Z,99972.34
2022-10-09T05:31:54.063Z,99971.28
2022-10-09T05:32:54.013Z,99973.02
2022-10-09T05:33:56.482Z,99970.12
2022-10-09T05:34:55.456Z,99972.64
2022-10-09T05:35:57.825Z,99974.76
2022-10-09T05:36:55.663Z,99974.63
2022-10-09T05:37:56.305Z,99975.31
2022-10-09T05:38:57.433Z,99979.62
2022-10-09T05:39:57.029Z,99979.62
2022-10-09T05:41:06.169Z,99983.06
2022-10-09T05:41:58.785Z,99985.86
2022-10-09T05:42:59.210Z,99988.97
2022-10-09T05:44:02.794Z,99990.31
2022-10-09T05:45:00.340Z,99991.64
2022-10-09T05:47:04.558Z,99992.2
2022-10-09T05:48:04.767Z,99993.77
2022-10-09T05:49:06.106Z,100002.03
2022-10-09T05:50:06.515Z,100000.92
2022-10-09T05:51:14.853Z,100005.7
2022-10-09T05:52:07.555Z,100008.31
2022-10-09T05:53:08.158Z,100008.69
2022-10-09T05:54:09.627Z,100014.84
2022-10-09T05:55:09.419Z,100015.64
2022-10-09T05:57:10.566Z,100025.22
2022-10-09T05:58:10.974Z,100026.08
2022-10-09T05:59:16.623Z,100026
2022-10-09T06:00:14.698Z,100026.16
2022-10-09T06:01:14.823Z,100033.48
2022-10-09T06:02:15.129Z,100037.85
2022-10-09T06:03:15.305Z,100041.8
2022-10-09T06:04:23.945Z,100042.08
2022-10-09T06:05:16.746Z,100055.06
2022-10-09T06:06:17.677Z,100051.05
2022-10-09T06:07:17.381Z,100052.14
2022-10-09T06:08:17.591Z,100053.36
2022-10-09T06:09:21.183Z,100056.97
2022-10-09T06:10:18.727Z,100052.7
2022-10-09T06:11:21.731Z,100059.47
2022-10-09T06:12:19.458Z,100057.95
2022-10-09T06:13:19.779Z,100058.48
2022-10-09T06:14:20.193Z,100059.95
2022-10-09T06:15:20.592Z,100066.75
2022-10-09T06:16:24.472Z,100059.67
2022-10-09T06:17:22.024Z,100068.16
2022-10-09T06:18:22.271Z,100064.31
2022-10-09T06:19:22.787Z,100067.12
2022-10-09T06:20:23.306Z,100068.56
2022-10-09T06:21:24.127Z,100065.38
2022-10-09T06:22:24.444Z,100065.95
2022-10-09T06:23:25.170Z,100064.08
2022-10-09T06:24:29.023Z,100063.5
2022-10-09T06:25:27.130Z,100062.29
2022-10-09T06:26:29.586Z,100065.31
2022-10-09T06:27:28.364Z,100059.44
2022-10-09T06:28:29.700Z,100066.97
2022-10-09T06:29:28.792Z,100067.23
2022-10-09T06:30:29.452Z,100071.58
2022-10-09T06:31:32.395Z,100066.55
2022-10-09T06:32:30.037Z,100069.52
2022-10-09T06:33:31.997Z,100074.86
2022-10-09T06:34:30.972Z,100074.62
2022-10-09T06:35:34.976Z,100075.78
2022-10-09T06:36:35.282Z,100080.52
2022-10-09T06:37:32.934Z,100077.8
2022-10-09T06:38:37.185Z,100077.42
2022-10-09T06:39:34.897Z,100076.14
2022-10-09T06:40:36.949Z,100075.14
2022-10-09T06:41:35.724Z,100077.17
2022-10-09T06:42:36.049Z,100080.61
2022-10-09T06:43:36.594Z,100085.95
2022-10-09T06:44:36.902Z,100085.19
2022-10-09T06:45:37.904Z,100088.09
2022-10-09T06:46:40.163Z,100089.2
2022-10-09T06:47:38.022Z,100091.62
2022-10-09T06:48:40.281Z,100093.03
2022-10-09T06:49:38.851Z,100094.69
2022-10-09T06:50:39.265Z,100093.27
2022-10-09T06:51:40.715Z,100097.61
2022-10-09T06:52:40.206Z,100105.52
2022-10-09T06:53:43.188Z,100102.97
2022-10-09T06:54:40.812Z,100102.41
2022-10-09T06:55:52.512Z,100101.05
2022-10-09T06:56:45.046Z,100102.95
2022-10-09T06:57:45.668Z,100103.79
2022-10-09T06:58:46.284Z,100104.16
2022-10-09T06:59:47.230Z,100100.34
2022-10-09T07:00:46.713Z,100106.03
2022-10-09T07:01:47.196Z,100102.84
2022-10-09T07:02:48.203Z,100106.05
2022-10-09T07:03:54.214Z,100111.76
2022-10-09T07:04:51.877Z,100117.55
2022-10-09T07:05:52.082Z,100116.08
2022-10-09T07:06:52.997Z,100119.8
2022-10-09T07:07:52.895Z,100125.62
2022-10-09T07:08:56.804Z,100124.61
2022-10-09T07:09:54.350Z,100125.89
2022-10-09T07:10:54.657Z,100127.08
2022-10-09T07:11:55.046Z,100125.74
2022-10-09T07:12:55.600Z,100134.04
2022-10-09T07:14:01.525Z,100137.25
2022-10-09T07:14:59.094Z,100138.44
2022-10-09T07:16:02.631Z,100138.48
2022-10-09T07:17:02.267Z,100143.8
2022-10-09T07:18:03.206Z,100146.73
2022-10-09T07:19:04.242Z,100148.14
2022-10-09T07:20:04.038Z,100147.31
2022-10-09T07:21:08.854Z,100145.44
2022-10-09T07:22:06.605Z,100148.75
2022-10-09T07:23:06.945Z,100147.88
2022-10-09T07:24:07.859Z,100152.09
2022-10-09T07:25:09.083Z,100155
2022-10-09T07:27:11.061Z,100158.73
2022-10-09T07:28:11.548Z,100155.38
2022-10-09T07:29:14.242Z,100163.94
2022-10-09T07:30:13.114Z,100165.66
2022-10-09T07:31:13.595Z,100162.67
2022-10-09T07:32:13.229Z,100163.53
2022-10-09T07:33:13.542Z,100162.94
2022-10-09T07:34:14.016Z,100164.67
2022-10-09T07:35:14.798Z,100165.55
2022-10-09T07:36:14.892Z,100166.09
2022-10-09T07:37:15.215Z,100161.81
2022-10-09T07:38:15.426Z,100160.47
2022-10-09T07:39:16.651Z,100160.8
2022-10-09T07:40:16.562Z,100160.89
2022-10-09T07:41:16.680Z,100163.27
2022-10-09T07:42:17.199Z,100169.25
2022-10-09T07:43:17.562Z,100165.03
2022-10-09T07:44:18.635Z,100165.77
2022-10-09T07:45:18.214Z,100172.67
2022-10-09T07:46:20.410Z,100174.48
2022-10-09T07:47:19.272Z,100173.21
2022-10-09T07:48:19.582Z,100175.95
2022-10-09T07:49:20.311Z,100174.23
2022-10-09T07:50:20.511Z,100173.31
2022-10-09T07:51:28.413Z,100176.28
2022-10-09T07:52:20.850Z,100176.99
2022-10-09T07:53:21.562Z,100175.03
2022-10-09T07:54:21.881Z,100175.83
2022-10-09T07:55:22.186Z,100176.59
2022-10-09T07:57:25.486Z,100177.39
2022-10-09T07:58:25.789Z,100176.3
2022-10-09T07:59:26.218Z,100178.84
2022-10-09T08:00:26.728Z,100182.1
2022-10-09T08:01:28.548Z,100179.97
2022-10-09T08:02:27.541Z,100183.27
2022-10-09T08:03:28.081Z,100189.25
2022-10-09T08:04:28.394Z,100185.2
2022-10-09T08:05:28.599Z,100190.52
2022-10-09T08:06:29.640Z,100189.12
2022-10-09T08:07:34.721Z,100189.45
2022-10-09T08:08:33.231Z,100187.52
2022-10-09T08:09:33.142Z,100188.82
2022-10-09T08:10:33.659Z,100191.97
2022-10-09T08:11:34.687Z,100192.64
2022-10-09T08:12:34.173Z,100194.8
2022-10-09T08:13:34.574Z,100197.2
2022-10-09T08:14:35.109Z,100202.43
2022-10-09T08:16:37.182Z,100209.27
2022-10-09T08:17:37.595Z,100211.4
2022-10-09T08:18:38.324Z,100210.78
2022-10-09T08:19:38.929Z,100210.5
2022-10-09T08:20:39.361Z,100214.05
2022-10-09T08:21:39.260Z,100214.44
2022-10-09T08:22:39.778Z,100209.8
2022-10-09T08:23:39.983Z,100205.94
2022-10-09T08:24:40.581Z,100212.47
2022-10-09T08:25:41.122Z,100217.55
2022-10-09T08:26:41.443Z,100221.36
2022-10-09T08:27:41.754Z,100222.12
2022-10-09T08:28:42.760Z,100224.12
2022-10-09T08:29:42.790Z,100223.34
2022-10-09T08:30:43.077Z,100229.38
2022-10-09T08:31:43.615Z,100231.29
2022-10-09T08:32:43.838Z,100233.78
2022-10-09T08:33:44.558Z,100229.66
2022-10-09T08:34:44.764Z,100228.86
2022-10-09T08:35:45.191Z,100230.84
2022-10-09T08:36:45.722Z,100230.61
2022-10-09T08:37:46.044Z,100227.23
2022-10-09T08:38:48.202Z,100235.24
2022-10-09T08:39:47.056Z,100233.39
2022-10-09T08:41:54.447Z,100237.18
2022-10-09T08:44:03.353Z,100240.2
2022-10-09T08:44:56.717Z,100245.25
2022-10-09T08:45:58.431Z,100248.78
2022-10-09T08:49:06.675Z,100248.81
2022-10-09T08:55:28.215Z,100251.56
2022-10-09T08:56:22.700Z,100254.94
2022-10-09T08:57:23.021Z,100253.86
2022-10-09T08:58:22.905Z,100256.19
2022-10-09T08:59:21.999Z,100255.81
2022-10-09T09:00:24.762Z,100258.11
2022-10-09T09:22:22.150Z,100279.71
2022-10-09T09:23:29.217Z,100280.05
2022-10-09T09:24:32.106Z,100278.36
2022-10-09T09:25:28.450Z,100274.12
2022-10-09T09:26:27.412Z,100279.11
2022-10-09T09:27:35.818Z,100282.83
2022-10-09T09:28:34.853Z,100281.22
2022-10-09T09:29:45.968Z,100283.32
2022-10-09T09:30:38.172Z,100281.33
2022-10-09T09:31:37.815Z,100282.69
2022-10-09T09:32:37.061Z,100285.39
2022-10-09T09:34:41.484Z,100285.16
2022-10-09T09:37:44.774Z,100292.18
2022-10-09T09:39:13.566Z,100293.54
2022-10-09T09:40:34.925Z,100292.25
2022-10-09T09:40:50.352Z,100291.82
2022-10-09T09:41:50.638Z,100290.93
2022-10-09T09:42:51.671Z,100296.22
2022-10-09T09:43:51.578Z,100290.64
2022-10-09T09:45:56.308Z,100290.27
2022-10-09T09:46:54.940Z,100293.59
2022-10-09T09:48:57.650Z,100291.66
2022-10-09T09:50:00.631Z,100294.14
2022-10-09T09:51:23.301Z,100293.73
2022-10-09T09:52:03.111Z,100291.77
2022-10-09T09:56:11.530Z,100291.51
2022-10-09T09:57:15.830Z,100295.59
2022-10-09T09:58:17.587Z,100295.48
2022-10-09T10:00:23.323Z,100296.88
2022-10-09T10:01:30.394Z,100292.92
2022-10-09T10:02:24.799Z,100290.81
2022-10-09T10:03:24.853Z,100294.34
2022-10-09T10:04:26.519Z,100299.58
2022-10-09T10:05:26.726Z,100295.05
2022-10-09T10:06:30.640Z,100299.08
2022-10-09T10:07:36.695Z,100301.66
2022-10-09T10:08:34.247Z,100300.54
2022-10-09T10:09:32.009Z,100300.38
2022-10-09T10:10:32.400Z,100299.75
2022-10-09T10:11:34.058Z,100305.75
2022-10-09T10:12:33.645Z,100301.44
2022-10-09T10:13:39.372Z,100309.65
2022-10-09T10:14:37.048Z,100314.26
2022-10-09T10:15:37.578Z,100311.62
2022-10-09T10:16:39.388Z,100315.36
2022-10-09T10:17:38.600Z,100309.8
2022-10-09T10:18:41.985Z,100312.91
2022-10-09T10:19:40.442Z,100317.77
2022-10-09T10:24:57.894Z,100320.64
2022-10-09T10:25:58.305Z,100326.89
2022-10-09T10:27:01.890Z,100327.38
2022-10-09T10:30:10.919Z,100331
2022-10-09T10:36:25.919Z,100336.49
2022-10-09T10:39:40.059Z,100347.09
2022-10-09T10:41:43.578Z,100341.36
2022-10-09T10:47:55.467Z,100343.68
2022-10-09T10:48:53.429Z,100351.08
2022-10-09T10:49:53.953Z,100344.78
2022-10-09T11:00:21.359Z,100345.46
2022-10-09T11:13:01.430Z,100348.05
2022-10-09T11:31:42.740Z,100373.19
2022-10-09T11:36:48.317Z,100376.59
2022-10-09T11:39:56.743Z,100375.02
2022-10-09T11:40:58.075Z,100379.55
2022-10-09T11:41:57.989Z,100382.87
2022-10-09T11:53:24.877Z,100383.48
2022-10-09T11:54:24.276Z,100381.3
2022-10-09T11:56:28.889Z,100384.67
2022-10-09T11:57:28.258Z,100385.52
2022-10-09T11:58:27.072Z,100383.16
2022-10-09T12:00:34.662Z,100385.67
2022-10-09T12:02:38.042Z,100391
2022-10-09T12:03:38.364Z,100394.69
2022-10-09T12:04:53.885Z,100393.88
2022-10-09T12:07:46.604Z,100396.58
2022-10-09T12:09:49.053Z,100396.38
2022-10-09T12:10:57.246Z,100396.66
2022-10-09T12:14:00.361Z,100402.38
2022-10-09T12:15:09.678Z,100407.39
2022-10-09T12:16:02.710Z,100403.58
2022-10-09T12:17:15.640Z,100408
2022-10-09T12:20:16.150Z,100405.66
2022-10-09T12:22:17.498Z,100407.2
2022-10-09T12:23:26.616Z,100408.79
2022-10-09T12:24:23.861Z,100410
2022-10-09T12:26:25.010Z,100412.42
2022-10-09T12:31:40.179Z,100413.53
2022-10-09T12:34:50.038Z,100419.59
2022-10-09T12:36:49.843Z,100417.22
2022-10-09T12:37:50.903Z,100420.2
2022-10-09T12:38:50.987Z,100418.98
2022-10-09T12:39:51.091Z,100425.37
2022-10-09T12:40:53.254Z,100423.66
2022-10-09T12:41:56.638Z,100422.34
2022-10-09T12:42:56.133Z,100423.44
2022-10-09T12:43:57.059Z,100426.92
2022-10-09T12:44:55.843Z,100426.83
2022-10-09T12:45:55.517Z,100422.28
2022-10-09T12:47:01.786Z,100424.32
2022-10-09T12:49:04.262Z,100433.48
2022-10-09T12:52:15.853Z,100433.48
2022-10-09T12:53:17.600Z,100440.12
2022-10-09T12:54:10.445Z,100444.77
2022-10-09T12:56:18.444Z,100441.69
2022-10-09T12:57:17.957Z,100442.76
2022-10-09T12:58:23.055Z,100438.14
2022-10-09T12:59:22.865Z,100437.45
2022-10-09T13:00:20.925Z,100441
2022-10-09T13:01:22.625Z,100440.2
2022-10-09T13:02:22.810Z,100447.15
2022-10-09T13:04:33.852Z,100454.05
2022-10-09T13:05:43.591Z,100452.96
2022-10-09T13:06:45.750Z,100454.17
2022-10-09T13:07:39.314Z,100453.83
2022-10-09T13:08:39.715Z,100459.25
2022-10-09T13:09:41.158Z,100460.44
2022-10-09T13:10:39.833Z,100457.13
2022-10-09T13:11:44.545Z,100456.62
2022-10-09T13:12:51.387Z,100459.86
2022-10-09T13:13:53.055Z,100459.38
2022-10-09T13:14:52.663Z,100460.31
2022-10-09T13:16:53.069Z,100457.19
2022-10-09T13:17:53.089Z,100460.84
2022-10-09T13:19:01.534Z,100459.34
2022-10-09T13:19:56.794Z,100458.42
2022-10-09T13:23:01.717Z,100458.3
2022-10-09T13:25:00.804Z,100450.98
2022-10-09T13:26:03.844Z,100448.94
2022-10-09T13:27:03.076Z,100450.23
2022-10-09T13:28:03.161Z,100447.53
2022-10-09T13:29:02.576Z,100448.92
2022-10-09T13:30:02.997Z,100448.27
2022-10-09T13:31:07.761Z,100448.81
2022-10-09T13:32:05.485Z,100451.73
2022-10-09T13:33:15.092Z,100447.94
2022-10-09T13:34:13.063Z,100450.97
2022-10-09T13:35:11.122Z,100448.84
2022-10-09T13:36:14.801Z,100450.11
2022-10-09T13:37:14.511Z,100454.36
2022-10-09T13:38:15.336Z,100452.45
2022-10-09T13:39:16.581Z,100453.33
2022-10-09T13:40:17.705Z,100460.16
2022-10-09T13:41:21.092Z,100457.8
2022-10-09T13:42:19.554Z,100456.27
2022-10-09T13:43:23.261Z,100459.58
2022-10-09T13:44:21.218Z,100460.85
2022-10-09T13:45:25.307Z,100462.6
2022-10-09T13:46:23.119Z,100464.2
2022-10-09T13:47:24.804Z,100464.34
2022-10-09T13:48:24.109Z,100468.59
2022-10-09T13:49:24.524Z,100470.98
2022-10-09T13:50:24.728Z,100468.02
2022-10-09T13:51:25.146Z,100471.53
2022-10-09T13:52:25.945Z,100473.38
2022-10-09T13:53:27.007Z,100473.86
2022-10-09T13:54:26.903Z,100471.7
2022-10-09T13:55:27.588Z,100475.8
2022-10-09T13:56:27.905Z,100476.73
2022-10-09T13:57:27.750Z,100475.55
2022-10-09T13:58:28.266Z,100478.43
2022-10-09T13:59:28.887Z,100478.95
2022-10-09T14:00:29.122Z,100483.92
2022-10-09T14:01:29.750Z,100483.41
2022-10-09T14:02:30.139Z,100488.98
2022-10-09T14:03:30.241Z,100484.61
2022-10-09T14:04:30.781Z,100483.31
2022-10-09T14:05:31.376Z,100486.94
2022-10-09T14:06:34.673Z,100490.03
2022-10-09T14:07:32.429Z,100489.23
2022-10-09T14:08:32.846Z,100490.84
2022-10-09T14:09:33.043Z,100498.11
2022-10-09T14:10:33.778Z,100491.95
2022-10-09T14:11:34.496Z,100494.02
2022-10-09T14:12:34.502Z,100494.66
2022-10-09T14:13:35.010Z,100499.42
2022-10-09T14:14:35.658Z,100498.62
2022-10-09T14:15:39.633Z,100500.48
2022-10-09T14:16:37.489Z,100500.5
2022-10-09T14:17:37.914Z,100502
2022-10-09T14:18:38.219Z,100502.39
2022-10-09T14:19:38.637Z,100508.94
2022-10-09T14:20:39.369Z,100509.02
2022-10-09T14:21:39.577Z,100504.51
2022-10-09T14:22:39.989Z,100510.23
2022-10-09T14:23:40.609Z,100506.78
2022-10-09T14:24:41.331Z,100507.31
2022-10-09T14:25:41.656Z,100510.39
2022-10-09T14:26:41.860Z,100508.02
2022-10-09T14:27:44.069Z,100508.73
2022-10-09T14:28:42.736Z,100514.13
2022-10-09T14:29:43.013Z,100512.3
2022-10-09T14:30:44.343Z,100507.7
2022-10-09T14:31:44.153Z,100508.3
2022-10-09T14:32:44.590Z,100507.17
2022-10-09T14:33:48.590Z,100507.89
2022-10-09T14:34:46.525Z,100510.49
2022-10-09T14:35:46.728Z,100510.55
2022-10-09T14:36:47.154Z,100511.45
2022-10-09T14:37:47.781Z,100511.09
2022-10-09T14:38:49.013Z,100511.86
2022-10-09T14:39:48.301Z,100514.61
2022-10-09T14:40:49.039Z,100519.36
2022-10-09T14:41:49.128Z,100519.66
2022-10-09T14:42:50.118Z,100517.03
2022-10-09T14:43:55.694Z,100521.58
2022-10-09T14:44:54.262Z,100521.36
2022-10-09T14:46:03.083Z,100520.54
2022-10-09T14:46:55.651Z,100522.33
2022-10-09T14:47:57.055Z,100521.9
2022-10-09T14:48:57.174Z,100524.19
2022-10-09T14:49:57.060Z,100525.98
2022-10-09T14:51:03.321Z,100526.52
2022-10-09T14:52:01.072Z,100528.59
2022-10-09T14:53:01.400Z,100532.53